Time;durP1;ratioP1;P1;durP2;ratioP2;P2;SDS_P1;SDS_P2;PMS_P1;PMS_P2;Temp;Humidity;BMP_temperature;BMP_pressure;BME280_temperature;BME280_humidity;BME280_pressure;Samples;Min_cycle;Max_cycle;Signal;HPM_P1;HPM_P2
2022/07/07 00:01:58;;;;;;;2.60;1.27;;;23.60;50.10;;;;;;5117536;28;20177;-88
2022/07/07 00:04:25;;;;;;;1.37;1.20;;;23.60;50.10;;;;;;5100772;28;20247;-88
2022/07/07 00:06:50;;;;;;;1.63;1.40;;;23.60;50.00;;;;;;5101040;28;20526;-88
2022/07/07 00:09:17;;;;;;;2.17;1.27;;;23.60;50.30;;;;;;5118949;28;20170;-88
2022/07/07 00:11:43;;;;;;;2.40;1.60;;;23.60;50.20;;;;;;5099942;28;20556;-89
2022/07/07 00:14:09;;;;;;;2.87;1.30;;;23.60;50.30;;;;;;5117696;28;20212;-88
2022/07/07 00:16:37;;;;;;;1.43;1.23;;;23.60;50.20;;;;;;5100165;28;20197;-89
2022/07/07 00:19:03;;;;;;;1.53;1.43;;;23.60;50.20;;;;;;5100347;28;20213;-88
2022/07/07 00:21:31;;;;;;;2.80;1.40;;;23.60;50.40;;;;;;5099784;28;20177;-89
2022/07/07 00:23:56;;;;;;;4.50;1.90;;;23.60;50.20;;;;;;5099301;28;20181;-89
2022/07/07 00:26:22;;;;;;;1.50;1.30;;;23.60;50.70;;;;;;5099299;28;20170;-88
2022/07/07 00:28:49;;;;;;;1.73;1.50;;;23.60;50.40;;;;;;5099664;28;20178;-88
2022/07/07 00:31:15;;;;;;;2.03;1.50;;;23.60;50.50;;;;;;5116964;28;20405;-88
2022/07/07 00:33:41;;;;;;;1.73;1.40;;;23.60;50.40;;;;;;5100336;28;20185;-89
2022/07/07 00:36:07;;;;;;;1.67;1.40;;;23.60;50.40;;;;;;5118781;28;20178;-90
2022/07/07 00:38:33;;;;;;;1.83;1.17;;;23.60;50.40;;;;;;5100646;28;20293;-88
2022/07/07 00:40:59;;;;;;;2.37;1.57;;;23.60;50.40;;;;;;5116454;28;20686;-88
2022/07/07 00:43:25;;;;;;;1.40;1.27;;;23.60;50.60;;;;;;5099054;28;20236;-88
2022/07/07 00:45:51;;;;;;;2.10;1.43;;;23.60;50.50;;;;;;5098647;28;20273;-89
2022/07/07 00:48:21;;;;;;;1.43;1.30;;;23.60;50.60;;;;;;5098131;28;20181;-88
2022/07/07 00:50:47;;;;;;;1.47;1.33;;;23.60;50.60;;;;;;5098251;28;20543;-88
2022/07/07 00:53:15;;;;;;;3.10;1.63;;;23.60;50.60;;;;;;5097445;28;20185;-88
2022/07/07 00:55:41;;;;;;;1.40;1.30;;;23.60;50.70;;;;;;5097553;28;20170;-88
2022/07/07 00:58:07;;;;;;;2.03;1.70;;;23.60;50.70;;;;;;5097900;28;20200;-88
2022/07/07 01:00:37;;;;;;;2.33;1.60;;;23.60;51.00;;;;;;5098071;28;20184;-88
2022/07/07 01:03:03;;;;;;;2.90;1.53;;;23.60;50.70;;;;;;5115968;28;20823;-88
2022/07/07 01:05:31;;;;;;;2.60;1.43;;;23.60;50.90;;;;;;5116269;28;20555;-88
2022/07/07 01:07:59;;;;;;;1.40;1.30;;;23.60;51.00;;;;;;5098873;28;20307;-89
2022/07/07 01:10:24;;;;;;;1.60;1.40;;;23.60;50.80;;;;;;5099643;28;20184;-89
2022/07/07 01:12:51;;;;;;;2.20;1.50;;;23.50;51.00;;;;;;5098517;28;20198;-89
2022/07/07 01:15:17;;;;;;;2.30;1.33;;;23.60;50.90;;;;;;5099081;28;20692;-89
2022/07/07 01:17:43;;;;;;;2.77;1.40;;;23.60;50.90;;;;;;5099329;28;20269;-89
2022/07/07 01:20:10;;;;;;;2.23;1.40;;;23.60;51.00;;;;;;5117547;28;20170;-89
2022/07/07 01:22:38;;;;;;;1.87;1.30;;;23.60;51.00;;;;;;5099618;28;20239;-89
2022/07/07 01:25:07;;;;;;;4.10;1.40;;;23.60;51.00;;;;;;5099710;28;20281;-89
2022/07/07 01:27:34;;;;;;;3.50;1.60;;;23.60;51.20;;;;;;5117319;28;20201;-89
2022/07/07 01:30:00;;;;;;;2.93;1.50;;;23.60;51.30;;;;;;5099830;28;20250;-89
2022/07/07 01:32:26;;;;;;;1.77;1.43;;;23.60;51.50;;;;;;5099238;28;20209;-89
2022/07/07 01:34:53;;;;;;;1.87;1.40;;;23.60;51.30;;;;;;5099266;28;20238;-89
2022/07/07 01:37:20;;;;;;;1.57;1.40;;;23.60;51.20;;;;;;5117272;28;20185;-89
2022/07/07 01:39:47;;;;;;;2.90;1.70;;;23.60;51.50;;;;;;5099265;28;20269;-89
2022/07/07 01:42:13;;;;;;;1.70;1.60;;;23.50;52.20;;;;;;5098995;28;20498;-89
2022/07/07 01:44:40;;;;;;;1.50;1.40;;;23.50;51.80;;;;;;5117345;28;20351;-89
2022/07/07 01:47:08;;;;;;;1.50;1.40;;;23.50;51.60;;;;;;5098437;28;20578;-89
2022/07/07 01:49:34;;;;;;;1.57;1.40;;;23.50;51.50;;;;;;5098807;28;20174;-89
2022/07/07 01:52:00;;;;;;;1.97;1.60;;;23.50;51.40;;;;;;5098990;28;20209;-89
2022/07/07 01:54:27;;;;;;;2.40;1.50;;;23.50;52.10;;;;;;5098744;28;20170;-89
2022/07/07 01:56:53;;;;;;;2.33;1.57;;;23.50;52.10;;;;;;5115302;28;20162;-89
2022/07/07 01:59:19;;;;;;;3.00;1.40;;;23.50;52.00;;;;;;5099203;28;20178;-89
2022/07/07 02:01:44;;;;;;;4.30;1.50;;;23.50;51.80;;;;;;5098870;28;20197;-89
2022/07/07 02:04:10;;;;;;;2.20;1.67;;;23.40;52.10;;;;;;5098824;28;20182;-89
2022/07/07 02:06:39;;;;;;;2.67;1.70;;;23.40;52.30;;;;;;5098853;28;20178;-89
2022/07/07 02:09:05;;;;;;;2.00;1.43;;;23.40;52.30;;;;;;5098530;28;20559;-89
2022/07/07 02:11:32;;;;;;;2.10;1.60;;;23.40;52.10;;;;;;5098292;28;20610;-89
2022/07/07 02:13:58;;;;;;;2.07;1.50;;;23.40;52.10;;;;;;5115665;28;20162;-89
2022/07/07 02:16:25;;;;;;;3.43;1.63;;;23.40;52.20;;;;;;5098378;28;20189;-89
2022/07/07 02:19:02;;;;;;;1.50;1.40;;;23.40;52.10;;;;;;5098302;28;20226;-89
2022/07/07 02:21:28;;;;;;;1.70;1.50;;;23.40;52.30;;;;;;5114528;28;20594;-89
2022/07/07 02:23:56;;;;;;;1.80;1.67;;;23.40;52.20;;;;;;5097153;28;20186;-89
2022/07/07 02:26:22;;;;;;;4.27;1.90;;;23.50;52.20;;;;;;5115719;28;20173;-89
2022/07/07 02:28:48;;;;;;;1.80;1.50;;;23.40;52.90;;;;;;5097326;28;20213;-89
2022/07/07 02:31:15;;;;;;;2.37;1.70;;;23.40;53.40;;;;;;5097835;28;20465;-89
2022/07/07 02:33:42;;;;;;;5.10;1.63;;;23.30;54.00;;;;;;5096902;28;20601;-89
2022/07/07 02:36:09;;;;;;;2.10;1.60;;;23.30;53.30;;;;;;5097595;28;20180;-89
2022/07/07 02:38:36;;;;;;;2.40;1.80;;;23.40;53.60;;;;;;5097366;28;20511;-89
2022/07/07 02:41:02;;;;;;;1.87;1.50;;;23.40;53.00;;;;;;5098932;28;20185;-89
2022/07/07 02:43:28;;;;;;;3.33;1.80;;;23.30;53.80;;;;;;5098660;28;20194;-89
2022/07/07 02:45:54;;;;;;;1.50;1.40;;;23.30;54.20;;;;;;5098624;28;20175;-89
2022/07/07 02:48:23;;;;;;;2.70;1.67;;;23.40;53.50;;;;;;5098289;28;20284;-89
2022/07/07 02:50:49;;;;;;;2.87;2.00;;;23.30;53.80;;;;;;5098606;28;20446;-90
2022/07/07 02:53:16;;;;;;;2.57;1.70;;;23.40;53.90;;;;;;5099729;28;20559;-90
2022/07/07 02:55:42;;;;;;;2.13;1.60;;;23.30;53.50;;;;;;5102558;28;20178;-90
2022/07/07 02:58:10;;;;;;;2.43;1.90;;;23.30;53.70;;;;;;5102627;28;20280;-90
2022/07/07 03:00:36;;;;;;;2.17;1.70;;;23.30;54.00;;;;;;5101402;28;20166;-90
2022/07/07 03:03:04;;;;;;;3.60;1.90;;;23.40;53.60;;;;;;5101941;28;20185;-90
2022/07/07 03:05:30;;;;;;;2.77;2.03;;;23.30;54.20;;;;;;5102489;28;20213;-90
2022/07/07 03:07:56;;;;;;;2.07;1.40;;;23.30;54.60;;;;;;5102420;28;20174;-90
2022/07/07 03:10:22;;;;;;;1.63;1.53;;;23.30;54.20;;;;;;5120025;28;20250;-90
2022/07/07 03:12:49;;;;;;;2.17;1.97;;;23.30;53.70;;;;;;5101758;28;20301;-89
2022/07/07 03:15:15;;;;;;;2.50;1.90;;;23.40;54.60;;;;;;5119560;28;20559;-90
2022/07/07 03:17:42;;;;;;;2.63;2.10;;;23.30;55.00;;;;;;5101732;28;20174;-89
2022/07/07 03:20:10;;;;;;;3.00;2.00;;;23.20;55.30;;;;;;5101439;28;20220;-90
2022/07/07 03:22:36;;;;;;;1.83;1.70;;;23.30;54.70;;;;;;5085972;28;20439;-88
2022/07/07 03:25:03;;;;;;;2.87;1.63;;;23.30;54.50;;;;;;5101223;28;20182;-88
2022/07/07 03:27:28;;;;;;;2.97;1.43;;;23.30;55.00;;;;;;5102100;28;20510;-88
2022/07/07 03:29:54;;;;;;;3.03;1.93;;;23.30;54.70;;;;;;5101323;28;20186;-88
2022/07/07 03:32:20;;;;;;;1.90;1.70;;;23.30;55.80;;;;;;5101165;28;20217;-88
2022/07/07 03:34:45;;;;;;;1.93;1.70;;;23.30;55.20;;;;;;5101496;28;20549;-88
2022/07/07 03:37:11;;;;;;;1.87;1.53;;;23.30;54.60;;;;;;5100661;28;20373;-88
2022/07/07 03:39:37;;;;;;;1.83;1.70;;;23.30;55.20;;;;;;5101415;28;20197;-88
2022/07/07 03:42:03;;;;;;;1.90;1.60;;;23.20;55.50;;;;;;5101546;28;20185;-89
2022/07/07 03:44:28;;;;;;;1.67;1.50;;;23.30;54.90;;;;;;5101173;28;20181;-88
2022/07/07 03:46:54;;;;;;;2.57;2.00;;;23.30;55.00;;;;;;5100908;28;20196;-88
2022/07/07 03:49:20;;;;;;;2.10;1.90;;;23.20;55.50;;;;;;5100469;28;20192;-88
2022/07/07 03:51:46;;;;;;;1.90;1.80;;;23.20;57.80;;;;;;5100592;28;20206;-88
2022/07/07 03:54:12;;;;;;;1.87;1.60;;;23.20;56.30;;;;;;5100461;28;20174;-88
2022/07/07 03:56:39;;;;;;;1.70;1.60;;;23.20;56.40;;;;;;5100883;28;20239;-88
2022/07/07 03:59:05;;;;;;;5.73;2.00;;;23.10;56.20;;;;;;5100694;28;20268;-88
2022/07/07 04:01:31;;;;;;;1.90;1.70;;;23.20;56.10;;;;;;5100444;28;20573;-88
2022/07/07 04:03:56;;;;;;;3.67;1.80;;;23.20;55.70;;;;;;5099889;28;20475;-88
2022/07/07 04:06:22;;;;;;;3.20;2.03;;;23.20;55.80;;;;;;5099709;28;20173;-88
2022/07/07 04:08:49;;;;;;;1.93;1.73;;;23.20;56.60;;;;;;5099678;28;20204;-88
2022/07/07 04:11:18;;;;;;;1.83;1.73;;;23.20;57.70;;;;;;5099273;28;20193;-88
2022/07/07 04:13:43;;;;;;;14.60;2.10;;;23.20;56.80;;;;;;5100233;28;20175;-88
2022/07/07 04:16:09;;;;;;;3.27;2.10;;;23.20;57.10;;;;;;5100697;28;20197;-88
2022/07/07 04:18:35;;;;;;;3.53;2.40;;;23.20;57.30;;;;;;5098940;28;20170;-88
2022/07/07 04:21:01;;;;;;;3.73;1.90;;;23.20;58.10;;;;;;5098996;28;20174;-88
2022/07/07 04:23:27;;;;;;;3.30;2.20;;;23.10;58.30;;;;;;5098733;28;20586;-88
2022/07/07 04:25:53;;;;;;;1.70;1.60;;;23.10;58.00;;;;;;5099731;28;20319;-89
2022/07/07 04:28:19;;;;;;;2.10;1.90;;;23.10;58.80;;;;;;5099856;28;20197;-88
2022/07/07 04:30:45;;;;;;;3.10;1.97;;;23.10;58.00;;;;;;5099346;28;20234;-88
2022/07/07 04:33:11;;;;;;;3.17;2.10;;;23.10;57.80;;;;;;5098837;28;20217;-89
2022/07/07 04:35:37;;;;;;;4.33;1.80;;;23.10;57.80;;;;;;5099052;28;20170;-88
2022/07/07 04:38:03;;;;;;;2.00;1.73;;;23.10;57.80;;;;;;5099133;28;20182;-88
2022/07/07 04:40:28;;;;;;;3.77;2.43;;;23.10;57.30;;;;;;5098379;28;20243;-89
2022/07/07 04:42:54;;;;;;;2.30;1.90;;;23.10;59.00;;;;;;5098080;28;20258;-89
2022/07/07 04:45:20;;;;;;;3.20;2.13;;;23.10;57.70;;;;;;5099049;28;20191;-88
2022/07/07 04:47:46;;;;;;;2.97;1.93;;;23.10;59.00;;;;;;5098116;28;20182;-88
2022/07/07 04:50:13;;;;;;;2.23;1.90;;;23.10;58.60;;;;;;5098817;28;20489;-89
2022/07/07 04:52:39;;;;;;;1.73;1.63;;;23.10;57.90;;;;;;5097857;28;20205;-89
2022/07/07 04:55:05;;;;;;;1.87;1.63;;;23.10;57.60;;;;;;5097883;28;20267;-88
2022/07/07 04:57:31;;;;;;;2.13;1.90;;;23.10;57.20;;;;;;5116212;28;20627;-89
2022/07/07 04:59:57;;;;;;;2.47;1.97;;;23.10;57.60;;;;;;5097710;28;20261;-88
2022/07/07 05:02:23;;;;;;;2.13;1.93;;;23.10;58.10;;;;;;5098814;28;20431;-90
2022/07/07 05:04:49;;;;;;;2.43;2.00;;;23.10;58.30;;;;;;5098335;28;20201;-91
2022/07/07 05:07:16;;;;;;;5.77;2.10;;;23.10;60.20;;;;;;5100787;28;20174;-91
2022/07/07 05:09:42;;;;;;;3.43;2.13;;;23.10;58.20;;;;;;5100186;28;20181;-92
2022/07/07 05:12:08;;;;;;;2.33;1.70;;;23.10;59.40;;;;;;5098222;28;20201;-91
2022/07/07 05:14:34;;;;;;;2.07;1.57;;;23.10;58.10;;;;;;5096944;28;20288;-91
2022/07/07 05:16:59;;;;;;;2.87;1.90;;;23.10;58.10;;;;;;5097946;28;20230;-91
2022/07/07 05:19:26;;;;;;;4.50;2.30;;;23.10;58.30;;;;;;5098591;28;20335;-91
2022/07/07 05:21:52;;;;;;;2.17;1.97;;;23.10;58.10;;;;;;5096643;28;20177;-90
2022/07/07 05:24:17;;;;;;;3.27;1.97;;;23.20;58.50;;;;;;5114269;28;20171;-90
2022/07/07 05:26:44;;;;;;;3.53;1.70;;;23.10;58.60;;;;;;5097513;28;20177;-90
2022/07/07 05:29:10;;;;;;;3.90;1.83;;;23.10;58.80;;;;;;5097485;28;20688;-91
2022/07/07 05:31:35;;;;;;;4.73;2.00;;;23.10;58.90;;;;;;5096590;28;20672;-91
2022/07/07 05:34:01;;;;;;;3.57;2.73;;;23.20;58.90;;;;;;5096791;28;20200;-91
2022/07/07 05:36:27;;;;;;;2.97;2.63;;;23.10;62.60;;;;;;5098400;28;20266;-90
2022/07/07 05:38:53;;;;;;;2.40;2.13;;;22.90;67.80;;;;;;5094904;28;20170;-91
2022/07/07 05:41:19;;;;;;;3.23;1.90;;;22.80;68.80;;;;;;5097996;28;20226;-92
2022/07/07 05:43:44;;;;;;;2.30;1.90;;;22.80;69.70;;;;;;5099576;28;20177;-90
2022/07/07 05:46:10;;;;;;;3.43;1.87;;;22.80;67.50;;;;;;5099226;28;20223;-92
2022/07/07 05:48:36;;;;;;;3.27;1.60;;;22.80;71.00;;;;;;5098817;28;20174;-90
2022/07/07 05:51:02;;;;;;;2.00;1.80;;;22.70;70.40;;;;;;5097182;28;20242;-90
2022/07/07 05:53:28;;;;;;;2.33;1.80;;;22.70;73.10;;;;;;5095090;28;20167;-90
2022/07/07 05:55:53;;;;;;;2.70;1.97;;;22.70;68.60;;;;;;5096148;28;20547;-90
2022/07/07 05:58:19;;;;;;;1.90;1.70;;;22.80;67.10;;;;;;5096910;28;20171;-90
2022/07/07 06:00:45;;;;;;;2.17;1.63;;;22.90;69.40;;;;;;5095698;28;20165;-90
2022/07/07 06:03:12;;;;;;;2.00;1.80;;;23.00;67.10;;;;;;5096108;28;20518;-90
2022/07/07 06:05:37;;;;;;;2.43;1.73;;;23.00;65.80;;;;;;5113623;28;20301;-89
2022/07/07 06:08:03;;;;;;;3.37;1.60;;;23.00;66.80;;;;;;5095281;28;20215;-89
2022/07/07 06:10:29;;;;;;;3.73;1.63;;;23.10;65.00;;;;;;5095674;28;20174;-89
2022/07/07 06:12:55;;;;;;;2.80;1.50;;;23.20;67.10;;;;;;5094917;28;20213;-88
2022/07/07 06:15:24;;;;;;;2.97;1.40;;;23.20;64.80;;;;;;5096664;28;20563;-90
2022/07/07 06:17:49;;;;;;;2.20;1.60;;;23.20;64.70;;;;;;5093931;28;20413;-90
2022/07/07 06:20:15;;;;;;;1.90;1.57;;;23.30;65.10;;;;;;5093422;28;20169;-90
2022/07/07 06:22:41;;;;;;;2.10;1.60;;;23.30;64.20;;;;;;5094056;28;20170;-90
2022/07/07 06:25:10;;;;;;;2.27;1.70;;;23.40;64.00;;;;;;5093394;28;20165;-90
2022/07/07 06:27:36;;;;;;;3.90;1.80;;;23.50;63.90;;;;;;5094060;28;20178;-90
2022/07/07 06:30:06;;;;;;;2.60;1.83;;;23.50;64.00;;;;;;5093288;28;20170;-90
2022/07/07 06:32:32;;;;;;;3.13;1.90;;;23.40;65.20;;;;;;5093427;28;20464;-90
2022/07/07 06:34:57;;;;;;;3.13;1.70;;;23.50;65.80;;;;;;5111704;28;20203;-90
2022/07/07 06:37:24;;;;;;;2.20;2.00;;;23.50;65.80;;;;;;5110847;28;20191;-89
2022/07/07 06:39:50;;;;;;;2.60;1.80;;;23.40;69.50;;;;;;5093590;28;20227;-90
2022/07/07 06:42:16;;;;;;;2.77;2.10;;;23.40;67.80;;;;;;5093490;28;20178;-90
2022/07/07 06:44:41;;;;;;;3.50;2.40;;;23.50;67.40;;;;;;5094166;28;20181;-90
2022/07/07 06:47:07;;;;;;;4.77;2.33;;;23.50;68.60;;;;;;5093377;28;20257;-90
2022/07/07 06:49:33;;;;;;;2.80;2.20;;;23.40;71.10;;;;;;5093482;28;20433;-90
2022/07/07 06:51:59;;;;;;;2.87;2.10;;;23.40;71.60;;;;;;5093675;28;20212;-90
2022/07/07 06:54:25;;;;;;;4.57;2.60;;;23.50;69.10;;;;;;5111451;28;20250;-89
2022/07/07 06:56:50;;;;;;;5.70;2.40;;;23.50;75.30;;;;;;5111514;28;20194;-90
2022/07/07 06:59:17;;;;;;;2.80;2.17;;;23.50;69.20;;;;;;5093500;28;20691;-90
2022/07/07 07:01:44;;;;;;;2.40;2.20;;;23.50;70.20;;;;;;5094062;28;20177;-91
2022/07/07 07:04:09;;;;;;;2.90;2.13;;;23.60;70.70;;;;;;5092662;28;20181;-90
2022/07/07 07:06:38;;;;;;;3.57;2.30;;;23.60;71.30;;;;;;5093504;28;20246;-90
2022/07/07 07:09:04;;;;;;;2.50;2.20;;;23.60;76.80;;;;;;5111170;28;20412;-90
2022/07/07 07:11:30;;;;;;;2.37;2.07;;;23.50;72.90;;;;;;5092082;28;20206;-91
2022/07/07 07:13:56;;;;;;;2.37;2.10;;;23.50;72.40;;;;;;5093787;28;20170;-91
2022/07/07 07:16:22;;;;;;;2.50;2.03;;;23.40;74.00;;;;;;5111452;28;20169;-91
2022/07/07 07:18:48;;;;;;;3.53;2.00;;;23.40;75.80;;;;;;5093302;28;20170;-90
2022/07/07 07:21:14;;;;;;;3.30;2.10;;;23.40;75.70;;;;;;5092837;28;20504;-90
2022/07/07 07:23:40;;;;;;;2.47;2.00;;;23.40;74.40;;;;;;5092803;28;20166;-89
2022/07/07 07:26:07;;;;;;;3.17;2.03;;;23.50;73.70;;;;;;5092950;28;20456;-91
2022/07/07 07:28:34;;;;;;;3.00;1.70;;;23.80;71.10;;;;;;5093151;28;20638;-90
2022/07/07 07:31:01;;;;;;;2.23;1.87;;;23.80;73.40;;;;;;5092821;28;20177;-91
2022/07/07 07:33:28;;;;;;;2.57;1.73;;;23.90;71.10;;;;;;5090476;28;20538;-91
2022/07/07 07:35:54;;;;;;;1.90;1.70;;;23.80;70.80;;;;;;5091415;28;20272;-91
2022/07/07 07:38:20;;;;;;;2.67;1.80;;;23.80;71.40;;;;;;5092009;28;20512;-89
2022/07/07 07:40:46;;;;;;;2.00;1.60;;;23.60;71.00;;;;;;5096083;28;20319;-91
2022/07/07 07:43:12;;;;;;;3.07;1.80;;;23.60;70.90;;;;;;5096044;28;20170;-90
2022/07/07 07:45:38;;;;;;;3.43;2.20;;;23.60;70.50;;;;;;5094954;28;20471;-90
2022/07/07 07:48:04;;;;;;;4.13;1.80;;;23.70;69.80;;;;;;5095455;28;20590;-90
2022/07/07 07:50:31;;;;;;;3.43;1.80;;;23.80;71.00;;;;;;5113751;28;20165;-91
2022/07/07 07:52:58;;;;;;;4.20;1.90;;;24.00;68.30;;;;;;5095498;28;20686;-90
2022/07/07 07:55:24;;;;;;;4.10;1.83;;;24.10;67.10;;;;;;5094296;28;20548;-90
2022/07/07 07:57:51;;;;;;;2.57;1.70;;;24.20;66.00;;;;;;5096453;28;20174;-90
2022/07/07 08:00:20;;;;;;;1.80;1.40;;;24.30;67.00;;;;;;5095638;28;20171;-89
2022/07/07 08:02:47;;;;;;;2.03;1.40;;;24.40;66.90;;;;;;5113076;28;20382;-90
2022/07/07 08:05:15;;;;;;;1.90;1.60;;;24.40;67.70;;;;;;5094472;28;20174;-91
2022/07/07 08:07:42;;;;;;;2.40;1.50;;;24.40;67.60;;;;;;5095187;28;20174;-91
2022/07/07 08:10:09;;;;;;;3.03;1.60;;;24.30;67.10;;;;;;5094840;28;20181;-93
2022/07/07 08:12:35;;;;;;;2.53;1.50;;;24.20;67.10;;;;;;5093705;28;20684;-91
2022/07/07 08:15:02;;;;;;;2.10;1.60;;;24.10;67.70;;;;;;5094793;28;20317;-91
2022/07/07 08:17:28;;;;;;;2.13;1.50;;;24.20;66.60;;;;;;5094183;28;20185;-91
2022/07/07 08:19:53;;;;;;;2.33;1.70;;;24.30;67.20;;;;;;5093136;28;20216;-90
2022/07/07 08:22:19;;;;;;;3.17;1.53;;;24.20;66.40;;;;;;5094138;28;20202;-90
2022/07/07 08:24:45;;;;;;;3.13;1.60;;;24.10;68.00;;;;;;5095183;28;20178;-89
2022/07/07 08:27:12;;;;;;;2.90;1.60;;;24.10;67.20;;;;;;5094334;28;20563;-90
2022/07/07 08:29:39;;;;;;;2.33;1.50;;;24.00;67.80;;;;;;5096410;28;20185;-89
2022/07/07 08:32:12;;;;;;;2.70;1.30;;;23.90;69.70;;;;;;5094691;28;20216;-91
2022/07/07 08:34:39;;;;;;;2.23;1.47;;;23.90;68.30;;;;;;5113823;28;20585;-90
2022/07/07 08:37:05;;;;;;;2.13;1.30;;;23.80;69.50;;;;;;5095925;28;20269;-90
2022/07/07 08:39:32;;;;;;;2.30;1.50;;;23.70;68.70;;;;;;5093861;28;20166;-91
2022/07/07 08:41:58;;;;;;;2.00;1.37;;;23.70;69.00;;;;;;5093243;28;20181;-92
2022/07/07 08:44:25;;;;;;;2.83;1.60;;;23.80;68.00;;;;;;5094977;28;20231;-89
2022/07/07 08:46:51;;;;;;;2.40;1.30;;;23.90;67.80;;;;;;5094897;28;20182;-91
2022/07/07 08:49:17;;;;;;;1.73;1.30;;;24.00;66.40;;;;;;5095184;28;20201;-90
2022/07/07 08:51:44;;;;;;;2.43;1.20;;;24.10;65.80;;;;;;5093636;28;20201;-90
2022/07/07 08:54:14;;;;;;;2.13;1.57;;;24.30;64.40;;;;;;5093565;28;20170;-90
2022/07/07 08:56:42;;;;;;;2.27;1.30;;;24.40;63.40;;;;;;5094951;28;20170;-90
2022/07/07 08:59:13;;;;;;;3.77;1.50;;;24.50;63.90;;;;;;5093697;28;20215;-90
2022/07/07 09:01:39;;;;;;;1.50;1.33;;;24.80;62.40;;;;;;5095249;28;20280;-90
2022/07/07 09:04:06;;;;;;;2.73;1.50;;;24.90;61.40;;;;;;5093788;28;20452;-90
2022/07/07 09:06:32;;;;;;;2.10;1.50;;;24.80;61.20;;;;;;5093662;28;20174;-90
2022/07/07 09:08:59;;;;;;;2.40;1.60;;;24.70;61.10;;;;;;5093015;28;20182;-90
2022/07/07 09:11:33;;;;;;;4.63;1.50;;;24.60;60.80;;;;;;5112217;28;20309;-91
2022/07/07 09:14:19;;;;;;;2.00;1.30;;;24.40;61.70;;;;;;5093905;28;20436;-91
2022/07/07 09:16:45;;;;;;;2.73;1.40;;;24.30;63.00;;;;;;5092271;28;20174;-91
2022/07/07 09:19:22;;;;;;;3.13;1.30;;;24.20;63.20;;;;;;5092499;28;20255;-91
2022/07/07 09:21:48;;;;;;;3.70;1.30;;;24.10;67.10;;;;;;5094542;28;20201;-92
2022/07/07 09:24:15;;;;;;;1.50;1.30;;;24.10;65.00;;;;;;5092952;28;20174;-90
2022/07/07 09:26:45;;;;;;;2.37;1.30;;;24.20;66.30;;;;;;5093026;28;20174;-91
2022/07/07 09:29:17;;;;;;;3.80;1.50;;;24.50;62.90;;;;;;5092444;28;20284;-91
2022/07/07 09:31:58;;;;;;;2.13;1.50;;;24.80;66.80;;;;;;5093963;28;20264;-90
2022/07/07 09:34:30;;;;;;;2.37;1.30;;;25.00;62.50;;;;;;5091751;28;20336;-90
2022/07/07 09:39:42;;;;;;;1.70;1.23;;;24.60;63.40;;;;;;5110858;28;20184;-95
2022/07/07 09:42:24;;;;;;;2.50;1.23;;;24.50;62.50;;;;;;5092175;28;20182;-92
2022/07/07 09:45:00;;;;;;;3.73;1.20;;;24.30;64.00;;;;;;5092509;28;20541;-89
2022/07/07 09:47:26;;;;;;;1.20;1.10;;;24.20;64.10;;;;;;5090994;28;20543;-91
2022/07/07 09:50:01;;;;;;;1.10;1.00;;;24.10;65.40;;;;;;5092693;28;20239;-91
2022/07/07 09:52:29;;;;;;;1.60;1.40;;;24.00;66.70;;;;;;5111093;28;20205;-91
2022/07/07 09:54:56;;;;;;;1.73;1.20;;;24.10;65.00;;;;;;5109855;28;20551;-91
2022/07/07 09:57:22;;;;;;;1.40;1.30;;;24.20;65.00;;;;;;5092935;28;20447;-91
2022/07/07 09:59:48;;;;;;;2.40;1.10;;;24.20;65.10;;;;;;5092110;28;20251;-91
2022/07/07 10:02:29;;;;;;;2.07;1.30;;;24.40;65.20;;;;;;5091393;28;20260;-91
2022/07/07 10:04:58;;;;;;;1.37;1.17;;;24.60;63.80;;;;;;5091760;28;20233;-91
2022/07/07 10:07:29;;;;;;;2.00;1.30;;;24.60;64.20;;;;;;5092676;28;20202;-91
2022/07/07 10:10:07;;;;;;;1.53;1.30;;;24.60;64.00;;;;;;5092219;28;20173;-89
2022/07/07 10:12:33;;;;;;;3.07;1.37;;;24.60;65.90;;;;;;5090960;28;20465;-89
2022/07/07 10:15:02;;;;;;;1.53;1.20;;;24.50;64.60;;;;;;5109748;28;20451;-89
2022/07/07 10:17:28;;;;;;;1.30;1.20;;;24.40;63.40;;;;;;5092378;28;20185;-90
2022/07/07 10:19:55;;;;;;;2.83;1.40;;;24.50;63.20;;;;;;5091886;28;20331;-90
2022/07/07 10:22:26;;;;;;;1.37;1.03;;;24.50;64.10;;;;;;5091989;28;20178;-89
2022/07/07 10:24:53;;;;;;;1.90;1.60;;;24.50;63.60;;;;;;5090548;28;20186;-89
2022/07/07 10:27:21;;;;;;;2.13;1.20;;;24.40;63.20;;;;;;5090149;28;20433;-91
2022/07/07 10:30:07;;;;;;;1.30;1.20;;;24.30;63.90;;;;;;5092909;28;20178;-90
2022/07/07 10:32:50;;;;;;;1.53;1.10;;;24.10;67.70;;;;;;5089935;28;20213;-87
2022/07/07 10:35:16;;;;;;;1.50;1.20;;;24.00;68.70;;;;;;5109476;28;20174;-89
2022/07/07 10:37:48;;;;;;;3.47;1.30;;;24.00;67.30;;;;;;5091080;28;20170;-90
2022/07/07 10:40:21;;;;;;;1.53;1.20;;;24.00;68.80;;;;;;5091888;28;20182;-89
2022/07/07 10:42:59;;;;;;;1.83;1.20;;;24.10;66.90;;;;;;5110781;28;20174;-91
2022/07/07 10:45:25;;;;;;;2.20;1.10;;;24.30;68.50;;;;;;5093932;28;20182;-90
2022/07/07 10:47:51;;;;;;;2.00;1.20;;;24.50;67.50;;;;;;5091946;28;20177;-90
2022/07/07 10:50:32;;;;;;;2.10;1.10;;;24.80;64.40;;;;;;5093164;28;20185;-91
2022/07/07 10:52:59;;;;;;;2.23;1.30;;;25.10;64.80;;;;;;5091812;28;20232;-91
2022/07/07 10:56:02;;;;;;;1.27;1.13;;;24.90;62.90;;;;;;5091421;28;20205;-93
2022/07/07 10:59:01;;;;;;;1.17;1.07;;;24.70;65.70;;;;;;5006344;28;20174;-90
2022/07/07 11:01:29;;;;;;;1.10;1.00;;;24.70;64.90;;;;;;5006376;28;20972;-91
2022/07/07 11:03:55;;;;;;;1.20;1.10;;;24.70;67.00;;;;;;5006488;28;20251;-90
2022/07/07 11:06:21;;;;;;;1.50;1.10;;;24.70;65.90;;;;;;5031183;28;20185;-94
2022/07/07 11:09:01;;;;;;;3.27;1.20;;;24.80;65.10;;;;;;5092391;28;20174;-91
2022/07/07 11:11:28;;;;;;;1.20;1.10;;;24.70;64.50;;;;;;5090714;28;20201;-91
2022/07/07 11:14:25;;;;;;;1.83;1.20;;;24.80;64.40;;;;;;5093303;28;20178;-91
2022/07/07 11:16:57;;;;;;;1.97;1.23;;;24.60;64.10;;;;;;5096450;28;20174;-90
2022/07/07 11:19:29;;;;;;;1.10;1.00;;;24.60;63.50;;;;;;5094953;28;20174;-90
2022/07/07 11:21:55;;;;;;;1.47;1.00;;;24.50;65.10;;;;;;5095691;28;20281;-92
2022/07/07 11:24:23;;;;;;;1.20;1.10;;;24.50;64.20;;;;;;5096079;28;20170;-91
2022/07/07 11:27:03;;;;;;;1.53;1.10;;;24.50;63.20;;;;;;5095915;28;20181;-90
2022/07/07 11:29:31;;;;;;;1.20;1.10;;;24.60;64.80;;;;;;5094884;28;20586;-90
2022/07/07 11:32:09;;;;;;;1.43;1.10;;;24.60;63.20;;;;;;5095644;28;20210;-90
2022/07/07 11:34:48;;;;;;;1.17;1.07;;;24.70;62.80;;;;;;5094863;28;20174;-90
2022/07/07 11:37:26;;;;;;;1.27;1.00;;;24.90;61.30;;;;;;5094856;28;20551;-90
2022/07/07 11:39:53;;;;;;;1.10;1.00;;;25.10;63.50;;;;;;5094792;28;20559;-90
2022/07/07 11:42:19;;;;;;;1.97;1.10;;;25.20;59.40;;;;;;5095357;28;20185;-90
2022/07/07 11:44:45;;;;;;;1.47;1.10;;;25.20;59.90;;;;;;5095893;28;20174;-90
2022/07/07 11:47:11;;;;;;;2.70;1.20;;;25.10;59.60;;;;;;5095197;28;20197;-90
2022/07/07 11:49:37;;;;;;;1.47;1.10;;;25.00;59.60;;;;;;5095495;28;20433;-90
2022/07/07 11:52:04;;;;;;;1.10;1.00;;;24.80;62.30;;;;;;5113719;28;20200;-90
2022/07/07 11:54:29;;;;;;;1.20;1.10;;;24.80;62.40;;;;;;5094737;28;20235;-90
2022/07/07 11:56:55;;;;;;;2.87;1.40;;;24.70;62.30;;;;;;5095952;28;20174;-90
2022/07/07 11:59:24;;;;;;;1.50;1.10;;;24.70;62.50;;;;;;5095024;28;20198;-89
2022/07/07 12:01:51;;;;;;;3.23;1.20;;;24.70;64.10;;;;;;5095408;28;20174;-90
2022/07/07 12:04:20;;;;;;;1.50;1.10;;;24.70;61.30;;;;;;5093568;28;20182;-89
2022/07/07 12:06:47;;;;;;;1.60;1.10;;;24.70;61.70;;;;;;5095022;28;20181;-89
2022/07/07 12:09:13;;;;;;;1.90;1.07;;;24.60;61.90;;;;;;5094135;28;20180;-89
2022/07/07 12:11:40;;;;;;;1.40;1.10;;;24.70;61.80;;;;;;5095263;28;20194;-89
2022/07/07 12:14:08;;;;;;;1.90;1.20;;;24.80;60.80;;;;;;5094394;28;20265;-90
2022/07/07 12:16:52;;;;;;;1.37;1.10;;;24.90;61.10;;;;;;5094584;28;20278;-89
2022/07/07 12:19:18;;;;;;;1.53;1.10;;;24.90;61.30;;;;;;5093469;28;20170;-89
2022/07/07 12:21:45;;;;;;;1.03;1.00;;;24.90;60.50;;;;;;5093872;28;20274;-91
2022/07/07 12:24:37;;;;;;;1.30;1.20;;;24.80;61.60;;;;;;5094150;28;20294;-91
2022/07/07 12:27:03;;;;;;;2.50;1.20;;;24.70;62.50;;;;;;5090794;28;20178;-90
2022/07/07 12:29:29;;;;;;;2.20;1.20;;;24.60;62.80;;;;;;5111616;28;20185;-91
2022/07/07 12:31:55;;;;;;;1.20;1.00;;;24.60;62.70;;;;;;5112933;28;20612;-91
2022/07/07 12:34:22;;;;;;;3.20;1.20;;;24.60;63.90;;;;;;5092510;28;20169;-91
2022/07/07 12:36:49;;;;;;;1.87;1.20;;;24.70;63.30;;;;;;5094090;28;20181;-91
2022/07/07 12:39:15;;;;;;;2.40;1.10;;;24.80;64.30;;;;;;5093172;28;20170;-91
2022/07/07 12:41:42;;;;;;;1.23;1.13;;;24.90;63.20;;;;;;5093045;28;20174;-91
2022/07/07 12:44:25;;;;;;;1.30;1.20;;;24.90;62.20;;;;;;5094514;28;20189;-91
2022/07/07 12:46:59;;;;;;;1.70;1.20;;;24.80;64.20;;;;;;5094991;28;20174;-91
2022/07/07 12:49:25;;;;;;;1.73;1.10;;;24.50;64.20;;;;;;5092932;28;20194;-92
2022/07/07 12:51:51;;;;;;;1.87;1.37;;;24.50;63.40;;;;;;5092773;28;20225;-92
2022/07/07 12:54:25;;;;;;;2.33;1.30;;;24.50;63.40;;;;;;5093332;28;20170;-91